Greenwood, Wisconsin
Current Conditions -  °F | °C
As of 11:31 PM on Friday 24 Oct 2014 (Local Time) from KMFI Reporting Station
Haze Haze  
Wind Chill: 56°   Ceiling: 400
Heat Index: 56°   Visibility: 4mi
Dew Point: 54°   Wind: 10mph
Humidity: 93%   Direction: 260°W
Pressure: 29.86"   Gusts: 17mph
Location:  44.77°N, 90.6°W
Report Text: KMFI 250431Z AUTO 26009G15KT 4SM BR OVC004 13/12 A2986 RMK AO2 T01330122
Loading
Personal Weather Stations






























Interactive Weather Map New forecast layout! Learn more

10-Day Weather Forecast

Advertisements
Track Severe Weather on mobile